Time;durP1;ratioP1;P1;durP2;ratioP2;P2;SDS_P1;SDS_P2;PMS_P1;PMS_P2;Temp;Humidity;BMP_temperature;BMP_pressure;BME280_temperature;BME280_humidity;BME280_pressure;Samples;Min_cycle;Max_cycle;Signal;HPM_P1;HPM_P2
2022/10/11 00:00:30;;;;;;;11.73;3.50;;;14.80;1.00;;;;;;5027782;28;20292;-66
2022/10/11 00:02:57;;;;;;;5.40;3.50;;;14.80;1.00;;;;;;5029130;28;20464;-66
2022/10/11 00:05:23;;;;;;;7.87;3.70;;;14.80;1.00;;;;;;5028465;28;20839;-67
2022/10/11 00:07:49;;;;;;;7.03;3.93;;;14.80;1.00;;;;;;5029152;28;20411;-65
2022/10/11 00:10:15;;;;;;;5.73;3.30;;;14.80;1.00;;;;;;5031753;28;20418;-65
2022/10/11 00:12:41;;;;;;;8.73;3.27;;;14.80;1.00;;;;;;5031644;28;20199;-66
2022/10/11 00:15:08;;;;;;;4.20;3.10;;;14.80;1.00;;;;;;5030589;28;20430;-66
2022/10/11 00:17:35;;;;;;;6.37;3.83;;;14.80;1.00;;;;;;5032410;28;20508;-66
2022/10/11 00:20:00;;;;;;;4.00;3.10;;;14.70;1.00;;;;;;5032085;28;20406;-66
2022/10/11 00:22:26;;;;;;;4.67;2.97;;;14.60;1.00;;;;;;5031708;28;20509;-65
2022/10/11 00:24:52;;;;;;;6.33;3.40;;;14.60;1.00;;;;;;5032077;28;20668;-66
2022/10/11 00:27:18;;;;;;;9.23;4.60;;;14.50;1.00;;;;;;5032296;28;20533;-66
2022/10/11 00:29:44;;;;;;;13.83;3.60;;;14.50;1.00;;;;;;5031773;28;20250;-66
2022/10/11 00:32:09;;;;;;;16.83;4.07;;;14.50;1.00;;;;;;5031511;28;20903;-66
2022/10/11 00:34:35;;;;;;;10.97;4.00;;;14.50;1.00;;;;;;5031681;28;20192;-66
2022/10/11 00:37:01;;;;;;;5.27;2.73;;;14.50;1.00;;;;;;5031690;28;20200;-66
2022/10/11 00:39:27;;;;;;;5.13;3.13;;;14.40;1.00;;;;;;5031773;28;20183;-65
2022/10/11 00:41:53;;;;;;;4.07;2.90;;;14.40;1.00;;;;;;5031333;28;20429;-66
2022/10/11 00:44:25;;;;;;;5.87;3.10;;;14.40;1.00;;;;;;5031687;28;20518;-66
2022/10/11 00:47:07;;;;;;;4.10;3.40;;;14.30;1.00;;;;;;5031199;28;20398;-65
2022/10/11 00:49:55;;;;;;;5.60;3.13;;;14.40;1.00;;;;;;5031553;28;20407;-65
2022/10/11 00:52:38;;;;;;;8.10;4.10;;;14.50;1.00;;;;;;5013223;28;20426;-66
2022/10/11 00:55:17;;;;;;;13.33;3.70;;;14.60;1.00;;;;;;5031279;28;20521;-66
2022/10/11 00:57:47;;;;;;;5.20;3.47;;;14.70;1.00;;;;;;5031329;28;20483;-66
2022/10/11 01:00:13;;;;;;;8.20;3.93;;;14.60;1.00;;;;;;5030809;28;20411;-66
2022/10/11 01:02:40;;;;;;;6.23;3.50;;;14.60;1.00;;;;;;5031401;28;20811;-66
2022/10/11 01:05:08;;;;;;;7.63;4.30;;;14.50;1.00;;;;;;5031156;28;20477;-66
2022/10/11 01:07:35;;;;;;;7.77;3.30;;;14.50;1.00;;;;;;5031346;28;20425;-66
2022/10/11 01:10:01;;;;;;;10.10;4.03;;;14.50;1.00;;;;;;5031080;28;20793;-66
2022/10/11 01:12:29;;;;;;;13.50;3.50;;;14.50;1.00;;;;;;5030755;28;20418;-66
2022/10/11 01:15:19;;;;;;;12.40;4.93;;;14.50;1.00;;;;;;5029457;28;20580;-66
2022/10/11 01:18:23;;;;;;;8.47;3.37;;;14.50;1.00;;;;;;5031435;28;20529;-66
2022/10/11 01:21:10;;;;;;;6.90;3.93;;;14.40;1.00;;;;;;4989130;28;20505;-66
2022/10/11 01:24:07;;;;;;;7.33;4.67;;;14.40;1.00;;;;;;5030666;28;20890;-66
2022/10/11 01:26:54;;;;;;;5.10;4.10;;;14.40;1.00;;;;;;5030790;28;20901;-66
2022/10/11 01:29:56;;;;;;;5.97;3.90;;;14.40;1.00;;;;;;5031166;28;20421;-65
2022/10/11 01:32:32;;;;;;;8.33;4.13;;;14.40;1.00;;;;;;5030253;28;21008;-65
2022/10/11 01:35:07;;;;;;;6.83;4.40;;;14.40;1.00;;;;;;5030587;28;20496;-66
2022/10/11 01:37:41;;;;;;;16.03;4.67;;;14.40;1.00;;;;;;5030859;28;20818;-66
2022/10/11 01:40:17;;;;;;;9.07;4.57;;;14.40;1.00;;;;;;5030475;28;20402;-65
2022/10/11 01:42:44;;;;;;;13.00;4.40;;;14.40;1.00;;;;;;5029990;28;20449;-66
2022/10/11 01:45:15;;;;;;;15.97;5.67;;;14.40;1.00;;;;;;5029616;28;20422;-65
2022/10/11 01:47:41;;;;;;;12.13;5.07;;;14.40;1.00;;;;;;5030441;28;20819;-66
2022/10/11 01:50:34;;;;;;;11.47;5.10;;;14.40;1.00;;;;;;5012263;28;20806;-65
2022/10/11 01:53:16;;;;;;;7.80;4.37;;;14.40;1.00;;;;;;5030020;28;20446;-66
2022/10/11 01:56:21;;;;;;;6.77;3.87;;;14.40;1.00;;;;;;5030144;28;20464;-66
2022/10/11 01:59:00;;;;;;;13.57;4.33;;;14.40;1.00;;;;;;5012880;28;20414;-65
2022/10/11 02:01:34;;;;;;;10.37;4.80;;;14.40;1.00;;;;;;5029273;28;20406;-65
2022/10/11 02:04:34;;;;;;;13.27;5.53;;;14.40;1.00;;;;;;5030024;28;20455;-66
2022/10/11 02:07:05;;;;;;;7.70;3.63;;;14.50;1.00;;;;;;5029970;28;20752;-65
2022/10/11 02:09:43;;;;;;;5.60;3.30;;;14.50;1.00;;;;;;5029739;28;20445;-65
2022/10/11 02:12:11;;;;;;;8.87;3.90;;;14.50;1.00;;;;;;5029361;28;20420;-66
2022/10/11 02:14:42;;;;;;;7.43;3.87;;;14.50;1.00;;;;;;5027963;28;20449;-65
2022/10/11 02:17:19;;;;;;;9.07;3.90;;;14.50;1.00;;;;;;5030326;28;20457;-66
2022/10/11 02:19:50;;;;;;;20.90;4.73;;;14.50;1.00;;;;;;5029779;28;20779;-66
2022/10/11 02:22:26;;;;;;;12.10;4.37;;;14.50;1.00;;;;;;5029434;28;20736;-66
2022/10/11 02:24:56;;;;;;;11.80;4.73;;;14.40;1.00;;;;;;5029741;28;20810;-66
2022/10/11 02:27:26;;;;;;;8.63;4.73;;;14.50;1.00;;;;;;5029676;28;20485;-66
2022/10/11 02:29:54;;;;;;;12.77;4.37;;;14.50;1.00;;;;;;5028936;28;20501;-66
2022/10/11 02:32:22;;;;;;;5.03;3.97;;;14.40;1.00;;;;;;5028245;28;20505;-66
2022/10/11 02:34:59;;;;;;;9.40;3.97;;;14.40;1.00;;;;;;5029438;28;20479;-66
2022/10/11 02:37:38;;;;;;;5.63;3.30;;;14.40;1.00;;;;;;5029576;28;20470;-66
2022/10/11 02:40:30;;;;;;;13.93;4.70;;;14.30;1.00;;;;;;5029221;28;20406;-66
2022/10/11 02:42:58;;;;;;;5.20;4.10;;;14.30;1.00;;;;;;5029262;28;20422;-66
2022/10/11 02:45:41;;;;;;;8.20;4.93;;;14.30;1.00;;;;;;5028731;28;20445;-66
2022/10/11 02:48:09;;;;;;;18.57;4.73;;;14.30;1.00;;;;;;5029555;28;20474;-65
2022/10/11 02:50:35;;;;;;;8.10;4.30;;;14.30;1.00;;;;;;5028457;28;20949;-66
2022/10/11 02:53:03;;;;;;;6.40;4.10;;;14.20;1.00;;;;;;5029042;28;20530;-65
2022/10/11 02:55:29;;;;;;;7.33;4.70;;;14.20;1.00;;;;;;5029237;28;20426;-66
2022/10/11 02:57:55;;;;;;;10.40;5.40;;;14.20;1.00;;;;;;5029307;28;20461;-65
2022/10/11 03:00:20;;;;;;;9.07;5.20;;;14.10;1.00;;;;;;5028386;28;20421;-65
2022/10/11 03:02:46;;;;;;;13.67;6.20;;;14.10;1.00;;;;;;5028923;28;20179;-66
2022/10/11 03:05:12;;;;;;;7.63;4.80;;;14.20;1.00;;;;;;5029068;28;20605;-65
2022/10/11 03:07:37;;;;;;;7.07;4.30;;;14.20;1.00;;;;;;5029224;28;20182;-66
2022/10/11 03:10:04;;;;;;;5.73;4.97;;;14.20;1.00;;;;;;5028876;28;20171;-66
2022/10/11 03:12:30;;;;;;;9.53;4.23;;;14.20;1.00;;;;;;5028681;28;20247;-66
2022/10/11 03:14:56;;;;;;;7.67;4.20;;;14.20;1.00;;;;;;5027383;28;20502;-66
2022/10/11 03:17:21;;;;;;;6.50;4.90;;;14.20;1.00;;;;;;5029554;28;20286;-66
2022/10/11 03:19:47;;;;;;;7.20;4.83;;;14.20;1.00;;;;;;5029022;28;20614;-66
2022/10/11 03:22:13;;;;;;;9.00;5.20;;;14.20;1.00;;;;;;5028505;28;20190;-65
2022/10/11 03:24:39;;;;;;;6.60;4.57;;;14.20;1.00;;;;;;5028765;28;20476;-66
2022/10/11 03:27:05;;;;;;;9.27;4.87;;;14.10;1.00;;;;;;5029055;28;20660;-66
2022/10/11 03:29:31;;;;;;;13.03;5.10;;;14.10;1.00;;;;;;5028714;28;20219;-65
2022/10/11 03:31:57;;;;;;;11.90;5.00;;;14.10;1.00;;;;;;5028167;28;20756;-66
2022/10/11 03:34:24;;;;;;;6.70;4.57;;;14.20;1.00;;;;;;5028957;28;20203;-66
2022/10/11 03:36:49;;;;;;;8.80;4.30;;;14.10;1.00;;;;;;5029015;28;21079;-66
2022/10/11 03:39:15;;;;;;;14.53;6.13;;;14.10;1.00;;;;;;5028818;28;20461;-67
2022/10/11 03:41:41;;;;;;;7.70;4.80;;;14.10;1.00;;;;;;5027969;28;20625;-66
2022/10/11 03:44:06;;;;;;;9.23;4.70;;;14.10;1.00;;;;;;5030243;28;20498;-66
2022/10/11 03:46:32;;;;;;;10.23;4.40;;;14.10;1.00;;;;;;5032195;28;20267;-66
2022/10/11 03:48:58;;;;;;;6.53;4.90;;;13.90;1.00;;;;;;5032331;28;20270;-66
2022/10/11 03:51:23;;;;;;;7.47;6.60;;;13.90;1.00;;;;;;5031701;28;20494;-65
2022/10/11 03:53:49;;;;;;;6.80;6.10;;;13.80;1.00;;;;;;5014830;28;20706;-66
2022/10/11 03:56:15;;;;;;;8.87;7.93;;;13.60;1.00;;;;;;5032339;28;20279;-66
2022/10/11 03:58:41;;;;;;;7.10;5.70;;;13.40;1.00;;;;;;5032434;28;20193;-66
2022/10/11 04:01:07;;;;;;;7.37;6.30;;;13.50;1.00;;;;;;5031091;28;20421;-65
2022/10/11 04:03:33;;;;;;;8.00;5.17;;;13.60;1.00;;;;;;5032605;28;20476;-66
2022/10/11 04:05:59;;;;;;;9.23;5.50;;;13.60;1.00;;;;;;5031970;28;20495;-66
2022/10/11 04:08:25;;;;;;;7.97;7.17;;;13.70;1.00;;;;;;5032102;28;20987;-66
2022/10/11 04:10:50;;;;;;;9.83;5.80;;;13.80;1.00;;;;;;5031215;28;20238;-67
2022/10/11 04:13:16;;;;;;;13.20;5.60;;;13.80;1.00;;;;;;5032194;28;20278;-66
2022/10/11 04:15:42;;;;;;;13.20;5.73;;;13.80;1.00;;;;;;5030652;28;20189;-66
2022/10/11 04:18:08;;;;;;;8.73;6.50;;;13.60;1.00;;;;;;5031868;28;20410;-66
2022/10/11 04:20:34;;;;;;;7.60;5.43;;;13.50;1.00;;;;;;5031039;28;20167;-66
2022/10/11 04:23:00;;;;;;;15.23;6.60;;;13.40;1.00;;;;;;5031970;28;20710;-66
2022/10/11 04:25:25;;;;;;;14.30;7.20;;;13.40;1.00;;;;;;5028885;28;20167;-66
2022/10/11 04:27:51;;;;;;;19.10;7.37;;;13.50;1.00;;;;;;5043235;28;20208;-66
2022/10/11 04:30:17;;;;;;;8.10;6.13;;;13.60;1.00;;;;;;5050382;28;20214;-66
2022/10/11 04:32:44;;;;;;;10.53;7.07;;;13.60;1.00;;;;;;5039911;28;20206;-66
2022/10/11 04:35:10;;;;;;;18.53;7.10;;;13.50;1.00;;;;;;5030634;28;20935;-66
2022/10/11 04:37:36;;;;;;;14.73;8.37;;;13.50;1.00;;;;;;5030934;28;20476;-66
2022/10/11 04:40:03;;;;;;;14.10;7.67;;;13.50;1.00;;;;;;5031363;28;20395;-66
2022/10/11 04:42:28;;;;;;;11.93;7.27;;;13.60;1.00;;;;;;5030504;28;20402;-66
2022/10/11 04:44:54;;;;;;;10.83;6.57;;;13.50;1.00;;;;;;5030903;28;20407;-66
2022/10/11 04:47:20;;;;;;;9.30;6.20;;;13.60;1.00;;;;;;5032001;28;20172;-66
2022/10/11 04:49:45;;;;;;;15.10;7.13;;;13.60;1.00;;;;;;5031379;28;20201;-66
2022/10/11 04:52:11;;;;;;;14.20;8.30;;;13.70;1.00;;;;;;5036806;28;20527;-66
2022/10/11 04:54:37;;;;;;;9.40;7.10;;;13.70;1.00;;;;;;5049959;28;20206;-66
2022/10/11 04:57:03;;;;;;;11.87;8.50;;;13.70;1.00;;;;;;5048105;28;20299;-67
2022/10/11 04:59:28;;;;;;;21.90;9.60;;;13.70;1.00;;;;;;5047771;28;20177;-66
2022/10/11 05:01:54;;;;;;;16.53;8.67;;;13.70;1.00;;;;;;5042800;28;20178;-66
2022/10/11 05:04:20;;;;;;;17.23;8.60;;;13.60;1.00;;;;;;5047921;28;20281;-67
2022/10/11 05:06:45;;;;;;;31.03;10.57;;;13.70;1.00;;;;;;5048105;28;20353;-66
2022/10/11 05:09:12;;;;;;;19.90;9.40;;;13.70;1.00;;;;;;5047516;28;20179;-66
2022/10/11 05:11:37;;;;;;;10.90;8.87;;;13.70;1.00;;;;;;5046216;28;20600;-68
2022/10/11 05:14:03;;;;;;;16.63;9.43;;;13.50;1.00;;;;;;5047472;28;20479;-66
2022/10/11 05:16:29;;;;;;;27.83;10.00;;;13.60;1.00;;;;;;5047347;28;20286;-67
2022/10/11 05:18:54;;;;;;;28.17;9.30;;;13.60;1.00;;;;;;5047114;28;20190;-67
2022/10/11 05:21:23;;;;;;;16.30;9.77;;;13.60;1.00;;;;;;5046792;28;20586;-67
2022/10/11 05:23:51;;;;;;;22.53;11.90;;;13.70;1.00;;;;;;5048021;28;20187;-66
2022/10/11 05:26:18;;;;;;;19.17;11.30;;;13.70;1.00;;;;;;5046909;28;20447;-66
2022/10/11 05:28:45;;;;;;;15.30;10.33;;;13.80;1.00;;;;;;5040543;28;20465;-67
2022/10/11 05:31:11;;;;;;;43.30;12.77;;;13.70;1.00;;;;;;5035584;28;21068;-68
2022/10/11 05:33:37;;;;;;;18.70;10.10;;;13.70;1.00;;;;;;5035211;28;20548;-67
2022/10/11 05:36:03;;;;;;;18.90;9.80;;;13.80;1.00;;;;;;5035429;28;20461;-67
2022/10/11 05:38:29;;;;;;;35.00;11.93;;;13.80;1.00;;;;;;5042635;28;20516;-67
2022/10/11 05:40:58;;;;;;;16.07;11.43;;;13.80;1.00;;;;;;5043538;28;20564;-67
2022/10/11 05:43:24;;;;;;;15.53;10.20;;;13.90;1.00;;;;;;5039948;28;20203;-68
2022/10/11 05:45:50;;;;;;;16.10;9.40;;;13.90;1.00;;;;;;5047342;28;20406;-68
2022/10/11 05:48:16;;;;;;;13.63;10.23;;;13.90;1.00;;;;;;5045271;28;20205;-68
2022/10/11 05:50:41;;;;;;;19.20;10.73;;;13.90;1.00;;;;;;5034345;28;20190;-68
2022/10/11 05:53:07;;;;;;;14.03;10.43;;;13.80;1.00;;;;;;5034403;28;20702;-68
2022/10/11 05:55:37;;;;;;;20.70;11.20;;;13.90;1.00;;;;;;5036567;28;20642;-67
2022/10/11 05:58:03;;;;;;;12.90;10.40;;;13.90;1.00;;;;;;5036377;28;20194;-68
2022/10/11 06:00:29;;;;;;;14.93;10.73;;;13.90;1.00;;;;;;5032881;28;20528;-67
2022/10/11 06:02:54;;;;;;;15.73;10.07;;;14.00;1.00;;;;;;5038257;28;20445;-67
2022/10/11 06:05:20;;;;;;;15.37;9.73;;;14.00;1.00;;;;;;5035692;28;20174;-67
2022/10/11 06:07:46;;;;;;;12.67;9.57;;;14.00;1.00;;;;;;5037838;28;20187;-66
2022/10/11 06:10:12;;;;;;;17.33;10.60;;;14.00;1.00;;;;;;5033848;28;20170;-68
2022/10/11 06:12:38;;;;;;;17.30;9.53;;;14.00;1.00;;;;;;5034214;28;20196;-68
2022/10/11 06:15:05;;;;;;;14.53;9.63;;;14.10;1.00;;;;;;5037694;28;20178;-68
2022/10/11 06:17:31;;;;;;;12.20;9.03;;;14.10;1.00;;;;;;5042526;28;20195;-67
2022/10/11 06:19:56;;;;;;;15.97;9.40;;;14.10;1.00;;;;;;5036410;28;20511;-66
2022/10/11 06:22:22;;;;;;;20.93;10.27;;;14.00;1.00;;;;;;5034146;28;20887;-66
2022/10/11 06:24:48;;;;;;;15.37;9.97;;;14.10;1.00;;;;;;5028840;28;20587;-67
2022/10/11 06:27:13;;;;;;;22.20;10.60;;;14.00;1.00;;;;;;5040312;28;20656;-67
2022/10/11 06:29:39;;;;;;;16.23;10.13;;;13.90;1.00;;;;;;5036578;28;20175;-67
2022/10/11 06:32:05;;;;;;;15.20;10.10;;;13.80;1.00;;;;;;5040590;28;20179;-66
2022/10/11 06:34:31;;;;;;;16.43;10.90;;;13.80;1.00;;;;;;5035265;28;20195;-66
2022/10/11 06:36:57;;;;;;;12.20;9.13;;;13.80;1.00;;;;;;5042361;28;20575;-67
2022/10/11 06:39:23;;;;;;;12.80;9.40;;;13.90;1.00;;;;;;5032617;28;20218;-67
2022/10/11 06:41:48;;;;;;;41.23;14.50;;;13.90;1.00;;;;;;5042431;28;20515;-67
2022/10/11 06:44:15;;;;;;;17.27;11.77;;;13.90;1.00;;;;;;5038309;28;20188;-68
2022/10/11 06:46:41;;;;;;;21.10;11.03;;;14.00;1.00;;;;;;5029178;28;20188;-67
2022/10/11 06:49:07;;;;;;;24.63;12.23;;;14.00;1.00;;;;;;5029099;28;20429;-69
2022/10/11 06:51:34;;;;;;;18.03;11.63;;;14.00;1.00;;;;;;5027341;28;20691;-69
2022/10/11 06:54:00;;;;;;;13.40;10.90;;;14.00;1.00;;;;;;5029072;28;20508;-67
2022/10/11 06:56:28;;;;;;;14.30;10.83;;;14.00;1.00;;;;;;5029525;28;20885;-66
2022/10/11 06:58:55;;;;;;;20.80;12.80;;;14.10;1.00;;;;;;5030055;28;20402;-67
2022/10/11 07:01:22;;;;;;;14.23;10.00;;;14.10;1.00;;;;;;5032805;28;20453;-69
2022/10/11 07:03:49;;;;;;;22.63;12.40;;;14.20;1.00;;;;;;5049046;28;20852;-69
2022/10/11 07:06:21;;;;;;;64.03;16.50;;;14.30;1.00;;;;;;5049092;28;20909;-69
2022/10/11 07:08:47;;;;;;;15.10;11.63;;;14.30;1.00;;;;;;5049369;28;20416;-68
2022/10/11 07:11:15;;;;;;;19.43;10.87;;;14.40;1.00;;;;;;5048564;28;20410;-68
2022/10/11 07:13:41;;;;;;;16.33;9.00;;;14.40;1.00;;;;;;5049397;28;20465;-68
2022/10/11 07:16:09;;;;;;;15.80;9.63;;;14.50;1.00;;;;;;5048555;28;20448;-68
2022/10/11 07:18:35;;;;;;;20.47;10.27;;;14.40;1.00;;;;;;5050201;28;20411;-68
2022/10/11 07:21:06;;;;;;;12.50;9.23;;;14.20;1.00;;;;;;5052340;28;20890;-68
2022/10/11 07:23:33;;;;;;;17.43;12.33;;;14.20;1.00;;;;;;5053255;28;20186;-66
2022/10/11 07:25:58;;;;;;;29.83;12.40;;;14.30;1.00;;;;;;5052972;28;20482;-66
2022/10/11 07:28:25;;;;;;;26.93;11.20;;;14.50;1.00;;;;;;5052857;28;20924;-67
2022/10/11 07:30:51;;;;;;;21.67;10.60;;;14.60;1.00;;;;;;5051946;28;20174;-67
2022/10/11 07:33:17;;;;;;;16.50;11.20;;;14.80;1.00;;;;;;5053047;28;20421;-67
2022/10/11 07:35:42;;;;;;;12.10;10.30;;;15.00;1.00;;;;;;5052924;28;20948;-66
2022/10/11 07:38:08;;;;;;;11.97;9.60;;;15.10;1.00;;;;;;5052855;28;20199;-68
2022/10/11 07:40:41;;;;;;;16.57;10.33;;;15.10;1.00;;;;;;5052092;28;20167;-67
2022/10/11 07:43:07;;;;;;;13.50;9.10;;;15.10;1.00;;;;;;5053000;28;20427;-67
2022/10/11 07:45:36;;;;;;;13.97;10.30;;;15.30;1.00;;;;;;5052142;28;20410;-68
2022/10/11 07:48:01;;;;;;;21.07;10.03;;;15.30;1.00;;;;;;5052930;28;20433;-68
2022/10/11 07:50:27;;;;;;;39.80;12.07;;;15.40;1.00;;;;;;5051708;28;21062;-67
2022/10/11 07:52:53;;;;;;;13.43;9.57;;;15.40;1.00;;;;;;5051046;28;20233;-67
2022/10/11 07:55:18;;;;;;;16.33;10.00;;;15.50;1.00;;;;;;5052488;28;20198;-67
2022/10/11 07:57:44;;;;;;;19.17;11.50;;;15.70;1.00;;;;;;5051869;28;20264;-67
2022/10/11 08:00:10;;;;;;;23.37;10.50;;;15.80;1.00;;;;;;5051308;28;20266;-67
2022/10/11 08:02:36;;;;;;;17.93;10.97;;;15.80;1.00;;;;;;5051809;28;20198;-67
2022/10/11 08:05:02;;;;;;;16.87;11.70;;;15.70;1.00;;;;;;5052235;28;20440;-67
2022/10/11 08:07:28;;;;;;;14.17;12.67;;;15.70;1.00;;;;;;5051942;28;20236;-67
2022/10/11 08:09:54;;;;;;;16.27;12.80;;;15.90;1.00;;;;;;5051788;28;20504;-66
2022/10/11 08:12:20;;;;;;;15.70;12.37;;;16.10;1.00;;;;;;5051087;28;20458;-66
2022/10/11 08:14:46;;;;;;;18.50;13.53;;;16.30;1.00;;;;;;5051324;28;20413;-66
2022/10/11 08:17:13;;;;;;;19.60;13.20;;;16.20;1.00;;;;;;5052078;28;20210;-66
2022/10/11 08:19:39;;;;;;;28.90;13.67;;;16.20;1.00;;;;;;5051651;28;20529;-66
2022/10/11 08:22:05;;;;;;;26.57;13.20;;;16.20;1.00;;;;;;5051144;28;20405;-65
2022/10/11 08:24:30;;;;;;;23.93;13.60;;;16.20;1.00;;;;;;5051889;28;20429;-69
2022/10/11 08:26:56;;;;;;;63.27;16.67;;;16.00;1.00;;;;;;5051604;28;20421;-67
2022/10/11 08:29:22;;;;;;;24.50;13.23;;;16.00;1.00;;;;;;5050615;28;20194;-66
2022/10/11 08:31:48;;;;;;;18.23;12.23;;;15.90;1.00;;;;;;5049608;28;20261;-66
2022/10/11 08:34:13;;;;;;;15.00;12.00;;;15.90;1.00;;;;;;5051245;28;20206;-65
2022/10/11 08:36:39;;;;;;;18.50;12.70;;;15.80;1.00;;;;;;5051779;28;20207;-65
2022/10/11 08:39:06;;;;;;;20.63;14.93;;;15.70;1.00;;;;;;5051350;28;20182;-65
2022/10/11 08:41:48;;;;;;;24.10;13.43;;;15.70;1.00;;;;;;5050802;28;20253;-66
2022/10/11 08:44:50;;;;;;;25.67;13.53;;;15.80;1.00;;;;;;5050882;28;20467;-65
2022/10/11 08:47:43;;;;;;;20.90;13.23;;;16.20;1.00;;;;;;5019230;28;20989;-65
2022/10/11 08:50:21;;;;;;;39.90;16.00;;;16.40;1.00;;;;;;5050990;28;20716;-66
2022/10/11 08:52:55;;;;;;;69.00;18.43;;;16.70;99.90;;;;;;5049361;28;20437;-66
2022/10/11 08:55:43;;;;;;;111.20;20.80;;;16.70;99.90;;;;;;5051129;28;20406;-65
2022/10/11 08:58:14;;;;;;;33.40;11.23;;;16.90;62.40;;;;;;5051692;28;20858;-65
2022/10/11 09:00:40;;;;;;;13.73;12.23;;;16.90;1.00;;;;;;5050486;28;20398;-65
2022/10/11 09:03:35;;;;;;;16.67;11.23;;;17.00;1.00;;;;;;5051476;28;20462;-65
2022/10/11 09:06:34;;;;;;;56.83;14.40;;;16.70;1.00;;;;;;5051195;28;20936;-66
2022/10/11 09:09:09;;;;;;;17.40;12.00;;;16.80;1.00;;;;;;5051465;28;20402;-66
2022/10/11 09:11:34;;;;;;;27.77;12.00;;;16.60;1.00;;;;;;5050267;28;20555;-66
2022/10/11 09:14:03;;;;;;;15.27;10.93;;;16.50;99.90;;;;;;5051090;28;20500;-66
2022/10/11 09:16:53;;;;;;;16.97;11.13;;;16.30;99.90;;;;;;5050719;28;20445;-65
2022/10/11 09:19:47;;;;;;;18.27;12.17;;;16.50;99.90;;;;;;5050768;28;20468;-65
2022/10/11 09:22:16;;;;;;;131.03;20.50;;;16.50;99.90;;;;;;5050358;28;20471;-66
2022/10/11 09:25:14;;;;;;;82.33;18.40;;;16.60;99.90;;;;;;5051082;28;20410;-67
2022/10/11 09:27:50;;;;;;;20.87;12.20;;;16.80;99.90;;;;;;5050947;28;20413;-67
2022/10/11 09:30:18;;;;;;;43.57;14.13;;;16.90;99.90;;;;;;5050115;28;20397;-67
2022/10/11 09:32:52;;;;;;;57.13;17.13;;;17.10;86.60;;;;;;5050246;28;20441;-66
2022/10/11 09:35:21;;;;;;;43.77;14.00;;;17.30;1.00;;;;;;5051263;28;20437;-66
2022/10/11 09:37:57;;;;;;;36.17;14.67;;;17.70;1.00;;;;;;5051393;28;20453;-67
2022/10/11 09:40:32;;;;;;;32.00;12.03;;;17.70;99.90;;;;;;5050432;28;20397;-67
2022/10/11 09:42:58;;;;;;;26.97;12.00;;;17.50;1.00;;;;;;5050373;28;20442;-66
2022/10/11 09:45:24;;;;;;;22.23;11.57;;;17.60;99.90;;;;;;5050263;28;20734;-67
2022/10/11 09:47:53;;;;;;;28.70;12.80;;;17.50;99.90;;;;;;5050718;28;20475;-66
2022/10/11 09:50:22;;;;;;;18.03;11.17;;;17.40;1.00;;;;;;5050076;28;20426;-66
2022/10/11 09:52:56;;;;;;;12.37;10.50;;;17.30;82.00;;;;;;5048291;28;20445;-66
2022/10/11 09:55:44;;;;;;;16.20;10.50;;;17.40;1.00;;;;;;5050441;28;20397;-66
2022/10/11 09:58:31;;;;;;;12.90;10.30;;;17.30;1.00;;;;;;5050360;28;20510;-66
2022/10/11 10:01:08;;;;;;;13.13;9.50;;;17.40;1.00;;;;;;5048670;28;20889;-66
2022/10/11 10:03:40;;;;;;;17.70;9.63;;;17.50;1.00;;;;;;5049832;28;20479;-65
2022/10/11 10:06:16;;;;;;;15.10;9.20;;;17.40;1.00;;;;;;5049793;28;20494;-67
2022/10/11 10:08:44;;;;;;;14.73;9.00;;;17.50;1.00;;;;;;5050425;28;20451;-66
2022/10/11 10:11:10;;;;;;;48.50;13.23;;;17.20;99.90;;;;;;5049563;28;20409;-66
2022/10/11 10:13:42;;;;;;;58.00;13.23;;;17.30;99.90;;;;;;5050629;28;20421;-66
2022/10/11 10:16:25;;;;;;;10.97;8.93;;;17.50;1.00;;;;;;5049614;28;20748;-67
2022/10/11 10:19:00;;;;;;;11.47;9.60;;;17.40;99.90;;;;;;5032249;28;20409;-65
2022/10/11 10:21:42;;;;;;;12.83;8.33;;;17.30;99.90;;;;;;5049287;28;20397;-66
2022/10/11 10:24:26;;;;;;;8.70;6.80;;;17.40;99.90;;;;;;5050243;28;20424;-66
2022/10/11 10:27:17;;;;;;;12.33;7.80;;;17.30;99.90;;;;;;5050299;28;20413;-66
2022/10/11 10:29:59;;;;;;;11.87;6.97;;;17.20;1.00;;;;;;5049126;28;20783;-66
2022/10/11 10:32:29;;;;;;;11.67;7.77;;;17.00;1.00;;;;;;5049390;28;20420;-66
2022/10/11 10:34:57;;;;;;;10.57;6.63;;;16.90;72.20;;;;;;5049237;28;20409;-66
2022/10/11 10:37:37;;;;;;;10.23;7.27;;;16.80;1.00;;;;;;5050014;28;20441;-66
2022/10/11 10:40:12;;;;;;;8.80;6.80;;;16.70;99.90;;;;;;5049886;28;20417;-66
2022/10/11 10:42:38;;;;;;;11.30;7.13;;;16.60;99.90;;;;;;5049575;28;20421;-66
2022/10/11 10:45:07;;;;;;;11.07;6.90;;;16.70;99.90;;;;;;5049099;28;20496;-67
2022/10/11 10:47:48;;;;;;;9.10;6.23;;;16.50;1.00;;;;;;5049747;28;20648;-65
2022/10/11 10:50:22;;;;;;;11.80;6.40;;;16.40;1.00;;;;;;5049764;28;20493;-66
2022/10/11 10:53:38;;;;;;;23.17;7.47;;;16.30;99.90;;;;;;5047905;28;20437;-69
2022/10/11 10:56:50;;;;;;;12.43;6.57;;;16.40;99.90;;;;;;5015118;28;21009;-66
2022/10/11 10:59:57;;;;;;;15.87;9.13;;;16.40;99.90;;;;;;5035335;28;21241;-66
2022/10/11 11:02:52;;;;;;;12.17;6.50;;;16.20;99.90;;;;;;5048882;28;20436;-66
2022/10/11 11:05:27;;;;;;;12.43;7.10;;;16.30;99.90;;;;;;5049583;28;20405;-67
2022/10/11 11:08:07;;;;;;;10.97;7.07;;;16.40;99.90;;;;;;5049434;28;20409;-68
2022/10/11 11:10:39;;;;;;;11.40;6.53;;;16.50;99.90;;;;;;5048348;28;20405;-67
2022/10/11 11:13:22;;;;;;;12.63;9.20;;;16.50;63.70;;;;;;5045526;28;20469;-66
2022/10/11 11:16:22;;;;;;;7.90;6.53;;;16.50;99.90;;;;;;5037664;28;20532;-66
2022/10/11 11:18:51;;;;;;;20.00;8.57;;;16.50;83.60;;;;;;5030120;28;20418;-65
2022/10/11 11:21:39;;;;;;;13.63;9.23;;;16.70;1.00;;;;;;5037454;28;20508;-67
2022/10/11 11:24:36;;;;;;;19.20;12.30;;;16.80;99.90;;;;;;5039144;28;20484;-67
2022/10/11 11:27:19;;;;;;;28.77;11.10;;;16.60;99.90;;;;;;5029853;28;20434;-66
2022/10/11 11:29:46;;;;;;;17.83;10.00;;;16.60;99.90;;;;;;5032132;28;20418;-67
2022/10/11 11:32:27;;;;;;;23.80;10.47;;;16.30;99.90;;;;;;5038485;28;20414;-65
2022/10/11 11:35:07;;;;;;;13.50;10.00;;;16.40;1.00;;;;;;5040619;28;20404;-65
2022/10/11 11:37:39;;;;;;;15.43;9.60;;;16.30;99.90;;;;;;5029535;28;20992;-64
2022/10/11 11:40:20;;;;;;;13.13;9.57;;;16.50;99.90;;;;;;5034824;28;20437;-65
2022/10/11 11:43:00;;;;;;;13.10;10.97;;;16.60;99.90;;;;;;5043599;28;20491;-67
2022/10/11 11:45:48;;;;;;;19.40;9.70;;;16.50;99.90;;;;;;5037125;28;20875;-66
2022/10/11 11:48:25;;;;;;;13.90;9.50;;;16.60;99.90;;;;;;5028979;28;20921;-65
2022/10/11 11:51:36;;;;;;;14.90;10.27;;;16.60;99.90;;;;;;5033998;28;20484;-66
2022/10/11 11:54:24;;;;;;;20.00;9.83;;;16.40;99.90;;;;;;5036270;28;20484;-67
2022/10/11 11:57:22;;;;;;;15.83;10.03;;;16.30;99.90;;;;;;5033514;28;20457;-67
2022/10/11 12:00:22;;;;;;;14.73;9.10;;;16.30;27.80;;;;;;5032957;28;20421;-66
2022/10/11 12:03:04;;;;;;;17.20;9.97;;;16.40;1.00;;;;;;4988599;28;20452;-67
2022/10/11 12:05:33;;;;;;;18.03;10.77;;;16.30;1.00;;;;;;5039372;28;20398;-66
2022/10/11 12:08:22;;;;;;;14.93;9.43;;;16.30;1.00;;;;;;5033133;28;20490;-64
2022/10/11 12:10:48;;;;;;;16.70;9.80;;;16.40;1.00;;;;;;5040281;28;20787;-68
2022/10/11 12:13:36;;;;;;;9.37;8.40;;;16.40;1.00;;;;;;5045159;28;20729;-66
2022/10/11 12:16:05;;;;;;;21.07;9.83;;;16.40;1.00;;;;;;5042458;28;20266;-67
2022/10/11 12:18:33;;;;;;;10.13;8.87;;;16.40;1.00;;;;;;5042757;28;20421;-66
2022/10/11 12:21:15;;;;;;;11.53;8.80;;;16.50;1.00;;;;;;5048784;28;20944;-66
2022/10/11 12:23:56;;;;;;;14.07;8.70;;;16.60;1.00;;;;;;5047372;28;20436;-66
2022/10/11 12:26:27;;;;;;;14.27;10.23;;;16.70;1.00;;;;;;5051674;28;20405;-67
2022/10/11 12:29:24;;;;;;;18.33;9.60;;;16.50;1.00;;;;;;5042375;28;20433;-66
2022/10/11 12:32:29;;;;;;;12.17;9.37;;;16.70;1.00;;;;;;5036814;28;20406;-66
2022/10/11 12:35:46;;;;;;;20.23;9.40;;;16.80;1.00;;;;;;5031228;28;20496;-66
2022/10/11 12:38:30;;;;;;;12.30;9.37;;;16.60;99.90;;;;;;4996189;28;20492;-66
2022/10/11 12:41:07;;;;;;;16.13;9.70;;;16.20;1.00;;;;;;5040699;28;20441;-66
2022/10/11 12:43:48;;;;;;;11.47;9.30;;;16.30;1.00;;;;;;5036619;28;20438;-66
2022/10/11 12:46:32;;;;;;;12.47;10.00;;;16.60;1.00;;;;;;5030680;28;20903;-65
2022/10/11 12:49:08;;;;;;;17.10;10.57;;;16.60;1.00;;;;;;5041325;28;20433;-65
2022/10/11 12:51:55;;;;;;;17.97;11.70;;;16.60;1.00;;;;;;5038367;28;20501;-67
2022/10/11 12:54:43;;;;;;;18.33;9.97;;;16.60;1.00;;;;;;5031180;28;20465;-65
2022/10/11 12:57:08;;;;;;;16.67;11.13;;;16.60;1.00;;;;;;5037348;28;20471;-67
2022/10/11 12:59:39;;;;;;;15.33;9.67;;;16.40;1.00;;;;;;5037830;28;20430;-66
2022/10/11 13:02:22;;;;;;;13.03;9.87;;;16.30;64.10;;;;;;5038746;28;20529;-67
2022/10/11 13:04:48;;;;;;;13.20;10.17;;;16.40;1.00;;;;;;5031126;28;20816;-66
2022/10/11 13:07:22;;;;;;;16.33;9.83;;;16.50;1.00;;;;;;5034172;28;20438;-66
2022/10/11 13:09:52;;;;;;;18.80;10.07;;;16.70;1.00;;;;;;5037861;28;20210;-66